createdAt,value
2017-11-29T00:00:44.549Z,842.41
2017-11-29T00:01:44.409Z,842.40
2017-11-29T00:02:44.281Z,842.39
2017-11-29T00:03:44.151Z,842.43
2017-11-29T00:04:44.018Z,842.42
2017-11-29T00:05:43.890Z,842.41
2017-11-29T00:06:43.757Z,842.42
2017-11-29T00:07:43.625Z,842.40
2017-11-29T00:08:43.492Z,842.43
2017-11-29T00:09:43.361Z,842.42
2017-11-29T00:10:43.231Z,842.39
2017-11-29T00:11:43.101Z,842.40
2017-11-29T00:12:42.969Z,842.40
2017-11-29T00:13:42.840Z,842.38
2017-11-29T00:14:42.708Z,842.39
2017-11-29T00:15:42.577Z,842.35
2017-11-29T00:16:42.449Z,842.30
2017-11-29T00:17:42.315Z,842.33
2017-11-29T00:18:42.185Z,842.29
2017-11-29T00:19:42.054Z,842.30
2017-11-29T00:20:41.921Z,842.25
2017-11-29T00:21:41.791Z,842.25
2017-11-29T00:22:41.657Z,842.25
2017-11-29T00:23:41.529Z,842.26
2017-11-29T00:24:41.401Z,842.25
2017-11-29T00:25:41.265Z,842.19
2017-11-29T00:26:41.136Z,842.20
2017-11-29T00:27:41.003Z,842.23
2017-11-29T00:28:40.874Z,842.26
2017-11-29T00:29:40.740Z,842.22
2017-11-29T00:30:40.611Z,842.22
2017-11-29T00:31:40.478Z,842.21
2017-11-29T00:32:40.347Z,842.19
2017-11-29T00:33:40.216Z,842.17
2017-11-29T00:34:40.086Z,842.16
2017-11-29T00:35:39.958Z,842.14
2017-11-29T00:36:39.824Z,842.15
2017-11-29T00:37:39.695Z,842.14
2017-11-29T00:38:39.559Z,842.10
2017-11-29T00:39:39.432Z,842.09
2017-11-29T00:40:39.302Z,842.12
2017-11-29T00:41:39.168Z,842.11
2017-11-29T00:42:39.038Z,842.12
2017-11-29T00:43:38.906Z,842.10
2017-11-29T00:44:38.774Z,842.09
2017-11-29T00:45:38.646Z,842.09
2017-11-29T00:46:38.513Z,842.08
2017-11-29T00:47:38.383Z,842.09
2017-11-29T00:48:38.249Z,842.08
2017-11-29T00:49:38.125Z,842.10
2017-11-29T00:50:37.993Z,842.11
2017-11-29T00:51:37.859Z,842.07
2017-11-29T00:52:37.727Z,842.07
2017-11-29T00:53:37.598Z,842.09
2017-11-29T00:54:37.467Z,842.06
2017-11-29T00:55:37.333Z,842.07
2017-11-29T00:56:37.201Z,842.06
2017-11-29T00:57:37.070Z,842.08
2017-11-29T00:58:36.938Z,842.12
2017-11-29T00:59:36.811Z,842.09
2017-11-29T01:00:36.674Z,842.09
2017-11-29T01:01:36.544Z,842.08
2017-11-29T01:02:36.412Z,842.10
2017-11-29T01:03:36.280Z,842.11
2017-11-29T01:04:36.150Z,842.10
2017-11-29T01:05:36.019Z,842.07
2017-11-29T01:06:35.888Z,842.05
2017-11-29T01:07:35.757Z,842.09
2017-11-29T01:08:35.621Z,842.08
2017-11-29T01:09:35.489Z,842.10
2017-11-29T01:10:35.358Z,842.11
2017-11-29T01:11:35.228Z,842.11
2017-11-29T01:12:35.095Z,842.08
2017-11-29T01:13:34.967Z,842.06
2017-11-29T01:14:34.835Z,842.05
2017-11-29T01:15:34.702Z,842.05
2017-11-29T01:16:34.570Z,842.04
2017-11-29T01:17:34.437Z,842.03
2017-11-29T01:18:34.304Z,842.01
2017-11-29T01:19:34.176Z,842.04
2017-11-29T01:20:34.045Z,842.06
2017-11-29T01:21:33.910Z,842.04
2017-11-29T01:22:33.780Z,842.07
2017-11-29T01:23:33.655Z,842.07
2017-11-29T01:24:33.516Z,842.05
2017-11-29T01:25:33.386Z,842.03
2017-11-29T01:26:33.254Z,842.05
2017-11-29T01:27:33.121Z,842.05
2017-11-29T01:28:32.991Z,842.05
2017-11-29T01:29:32.861Z,842.04
2017-11-29T01:30:32.729Z,842.01
2017-11-29T01:31:32.597Z,842.02
2017-11-29T01:32:32.466Z,842.06
2017-11-29T01:33:32.335Z,842.09
2017-11-29T01:34:32.203Z,842.09
2017-11-29T01:35:32.072Z,842.01
2017-11-29T01:36:31.942Z,842.02
2017-11-29T01:37:31.811Z,841.99
2017-11-29T01:38:31.680Z,841.98
2017-11-29T01:39:31.547Z,841.99
2017-11-29T01:40:31.416Z,841.98
2017-11-29T01:41:31.286Z,841.97
2017-11-29T01:42:31.153Z,841.99
2017-11-29T01:43:31.023Z,841.97
2017-11-29T01:44:30.891Z,842.01
2017-11-29T01:45:30.760Z,841.92
2017-11-29T01:46:30.629Z,841.97
2017-11-29T01:47:30.504Z,841.94
2017-11-29T01:48:30.366Z,841.95
2017-11-29T01:49:30.237Z,841.93
2017-11-29T01:50:30.105Z,841.93
2017-11-29T01:51:29.976Z,841.93
2017-11-29T01:52:29.843Z,841.86
2017-11-29T01:53:29.710Z,841.85
2017-11-29T01:54:29.583Z,841.84
2017-11-29T01:55:29.451Z,841.81
2017-11-29T01:56:29.320Z,841.80
2017-11-29T01:57:29.197Z,841.80
2017-11-29T01:58:29.056Z,841.78
2017-11-29T01:59:28.924Z,841.79
2017-11-29T02:00:28.793Z,841.78
2017-11-29T02:01:28.669Z,841.79
2017-11-29T02:02:28.535Z,841.80
2017-11-29T02:03:28.401Z,841.75
2017-11-29T02:04:28.269Z,841.77
2017-11-29T02:05:28.140Z,841.73
2017-11-29T02:06:28.007Z,841.78
2017-11-29T02:07:27.878Z,841.75
2017-11-29T02:08:27.745Z,841.78
2017-11-29T02:09:27.618Z,841.74
2017-11-29T02:10:27.482Z,841.73
2017-11-29T02:11:27.354Z,841.74
2017-11-29T02:12:27.223Z,841.71
2017-11-29T02:13:27.090Z,841.71
2017-11-29T02:14:26.960Z,841.68
2017-11-29T02:15:26.831Z,841.72
2017-11-29T02:16:26.698Z,841.72
2017-11-29T02:17:26.568Z,841.71
2017-11-29T02:18:26.438Z,841.70
2017-11-29T02:19:26.304Z,841.68
2017-11-29T02:20:26.174Z,841.65
2017-11-29T02:21:26.042Z,841.63
2017-11-29T02:22:25.913Z,841.61
2017-11-29T02:23:25.783Z,841.59
2017-11-29T02:24:25.653Z,841.55
2017-11-29T02:25:25.519Z,841.55
2017-11-29T02:26:25.389Z,841.54
2017-11-29T02:27:25.259Z,841.53
2017-11-29T02:28:25.126Z,841.50
2017-11-29T02:29:24.994Z,841.48
2017-11-29T02:30:24.868Z,841.47
2017-11-29T02:31:24.734Z,841.43
2017-11-29T02:32:24.602Z,841.42
2017-11-29T02:33:24.473Z,841.39
2017-11-29T02:34:24.342Z,841.37
2017-11-29T02:35:24.217Z,841.39
2017-11-29T02:36:24.080Z,841.35
2017-11-29T02:37:23.949Z,841.36
2017-11-29T02:38:23.818Z,841.39
2017-11-29T02:39:23.689Z,841.40
2017-11-29T02:40:23.556Z,841.40
2017-11-29T02:41:23.427Z,841.38
2017-11-29T02:42:23.295Z,841.38
2017-11-29T02:43:23.166Z,841.39
2017-11-29T02:44:23.035Z,841.39
2017-11-29T02:45:22.905Z,841.38
2017-11-29T02:46:22.775Z,841.39
2017-11-29T02:47:22.641Z,841.40
2017-11-29T02:48:22.511Z,841.40
2017-11-29T02:49:22.380Z,841.42
2017-11-29T02:50:22.252Z,841.43
2017-11-29T02:51:22.119Z,841.47
2017-11-29T02:52:21.987Z,841.44
2017-11-29T02:53:21.857Z,841.50
2017-11-29T02:54:21.726Z,841.46
2017-11-29T02:55:21.593Z,841.43
2017-11-29T02:56:21.462Z,841.42
2017-11-29T02:57:21.329Z,841.42
2017-11-29T02:58:21.203Z,841.41
2017-11-29T02:59:21.070Z,841.40
2017-11-29T03:00:20.939Z,841.38
2017-11-29T03:01:20.806Z,841.39
2017-11-29T03:02:20.677Z,841.36
2017-11-29T03:03:20.546Z,841.39
2017-11-29T03:04:20.415Z,841.33
2017-11-29T03:05:20.283Z,841.37
2017-11-29T03:06:20.152Z,841.34
2017-11-29T03:07:20.019Z,841.31
2017-11-29T03:08:19.885Z,841.35
2017-11-29T03:09:19.757Z,841.35
2017-11-29T03:10:19.624Z,841.34
2017-11-29T03:11:19.493Z,841.36
2017-11-29T03:12:19.362Z,841.34
2017-11-29T03:13:19.231Z,841.33
2017-11-29T03:14:19.103Z,841.33
2017-11-29T03:15:18.970Z,841.28
2017-11-29T03:16:18.839Z,841.29
2017-11-29T03:17:18.705Z,841.26
2017-11-29T03:18:18.578Z,841.27
2017-11-29T03:19:18.447Z,841.24
2017-11-29T03:20:18.312Z,841.25
2017-11-29T03:21:18.181Z,841.23
2017-11-29T03:22:18.050Z,841.26
2017-11-29T03:23:17.920Z,841.27
2017-11-29T03:24:17.784Z,841.25
2017-11-29T03:25:17.658Z,841.23
2017-11-29T03:26:17.530Z,841.24
2017-11-29T03:27:17.408Z,841.23
2017-11-29T03:28:17.262Z,841.24
2017-11-29T03:29:17.130Z,841.24
2017-11-29T03:30:17.002Z,841.27
2017-11-29T03:31:16.870Z,841.27
2017-11-29T03:32:16.736Z,841.26
2017-11-29T03:33:16.604Z,841.32
2017-11-29T03:34:16.475Z,841.31
2017-11-29T03:35:16.341Z,841.32
2017-11-29T03:36:16.210Z,841.31
2017-11-29T03:37:16.080Z,841.32
2017-11-29T03:38:15.950Z,841.32
2017-11-29T03:39:15.818Z,841.32
2017-11-29T03:40:15.686Z,841.28
2017-11-29T03:41:15.554Z,841.22
2017-11-29T03:42:15.429Z,841.22
2017-11-29T03:43:15.294Z,841.17
2017-11-29T03:44:15.160Z,841.16
2017-11-29T03:45:15.028Z,841.17
2017-11-29T03:46:14.898Z,841.14
2017-11-29T03:47:14.775Z,841.16
2017-11-29T03:48:14.637Z,841.17
2017-11-29T03:49:14.503Z,841.14
2017-11-29T03:50:14.371Z,841.14
2017-11-29T03:51:14.257Z,841.12
2017-11-29T03:52:14.108Z,841.13
2017-11-29T03:53:13.982Z,841.10
2017-11-29T03:54:13.848Z,841.12
2017-11-29T03:55:13.717Z,841.10
2017-11-29T03:56:13.586Z,841.10
2017-11-29T03:57:13.455Z,841.16
2017-11-29T03:58:13.323Z,841.18
2017-11-29T03:59:13.194Z,841.17
2017-11-29T04:00:13.066Z,841.22
2017-11-29T04:01:12.930Z,841.21
2017-11-29T04:02:12.801Z,841.22
2017-11-29T04:03:12.667Z,841.20
2017-11-29T04:04:12.542Z,841.24
2017-11-29T04:05:12.407Z,841.25
2017-11-29T04:06:12.274Z,841.25
2017-11-29T04:07:12.143Z,841.28
2017-11-29T04:08:12.012Z,841.28
2017-11-29T04:09:11.879Z,841.28
2017-11-29T04:10:11.749Z,841.26
2017-11-29T04:11:11.618Z,841.28
2017-11-29T04:12:11.486Z,841.25
2017-11-29T04:13:11.357Z,841.27
2017-11-29T04:14:11.224Z,841.24
2017-11-29T04:15:11.096Z,841.21
2017-11-29T04:16:10.965Z,841.22
2017-11-29T04:17:10.847Z,841.21
2017-11-29T04:18:10.701Z,841.22
2017-11-29T04:19:10.569Z,841.17
2017-11-29T04:20:10.439Z,841.21
2017-11-29T04:21:10.304Z,841.23
2017-11-29T04:22:10.175Z,841.16
2017-11-29T04:23:10.044Z,841.18
2017-11-29T04:24:09.913Z,841.15
2017-11-29T04:25:09.782Z,841.14
2017-11-29T04:26:09.650Z,841.14
2017-11-29T04:27:09.520Z,841.16
2017-11-29T04:28:09.387Z,841.16
2017-11-29T04:29:09.258Z,841.15
2017-11-29T04:30:09.129Z,841.13
2017-11-29T04:31:08.994Z,841.16
2017-11-29T04:32:08.862Z,841.14
2017-11-29T04:33:08.731Z,841.10
2017-11-29T04:34:08.603Z,841.10
2017-11-29T04:35:08.473Z,841.06
2017-11-29T04:36:08.338Z,841.06
2017-11-29T04:37:08.207Z,841.01
2017-11-29T04:38:08.075Z,841.04
2017-11-29T04:39:07.946Z,841.02
2017-11-29T04:40:07.813Z,841.03
2017-11-29T04:41:07.681Z,841.04
2017-11-29T04:42:07.552Z,840.99
2017-11-29T04:43:07.422Z,841.01
2017-11-29T04:44:07.286Z,840.99
2017-11-29T04:45:07.156Z,841.02
2017-11-29T04:46:07.024Z,841.02
2017-11-29T04:47:06.893Z,841.02
2017-11-29T04:48:06.763Z,841.07
2017-11-29T04:49:06.630Z,841.07
2017-11-29T04:50:06.506Z,841.05
2017-11-29T04:51:06.369Z,841.04
2017-11-29T04:52:06.235Z,841.07
2017-11-29T04:53:06.105Z,841.08
2017-11-29T04:54:05.971Z,841.06
2017-11-29T04:55:05.840Z,841.10
2017-11-29T04:56:05.710Z,841.08
2017-11-29T04:57:05.578Z,841.06
2017-11-29T04:58:05.449Z,841.09
2017-11-29T04:59:05.315Z,841.09
2017-11-29T05:00:05.184Z,841.08
2017-11-29T05:01:05.052Z,841.08
2017-11-29T05:02:04.921Z,841.08
2017-11-29T05:03:04.792Z,841.11
2017-11-29T05:04:04.655Z,841.09
2017-11-29T05:05:04.527Z,841.13
2017-11-29T05:06:04.399Z,841.13
2017-11-29T05:07:04.262Z,841.13
2017-11-29T05:08:04.130Z,841.10
2017-11-29T05:09:04.000Z,841.14
2017-11-29T05:10:03.872Z,841.09
2017-11-29T05:11:03.735Z,841.12
2017-11-29T05:12:03.602Z,841.13
2017-11-29T05:13:03.472Z,841.17
2017-11-29T05:14:03.339Z,841.16
2017-11-29T05:15:03.207Z,841.13
2017-11-29T05:16:03.076Z,841.14
2017-11-29T05:17:02.946Z,841.13
2017-11-29T05:18:02.814Z,841.12
2017-11-29T05:19:02.683Z,841.10
2017-11-29T05:20:02.549Z,841.03
2017-11-29T05:21:02.421Z,841.06
2017-11-29T05:22:02.292Z,841.04
2017-11-29T05:23:02.163Z,841.03
2017-11-29T05:24:02.024Z,841.07
2017-11-29T05:25:01.895Z,841.05
2017-11-29T05:26:01.760Z,841.08
2017-11-29T05:27:01.630Z,841.07
2017-11-29T05:28:01.511Z,841.08
2017-11-29T05:29:01.364Z,841.11
2017-11-29T05:30:01.235Z,841.10
2017-11-29T05:31:01.109Z,841.05
2017-11-29T05:32:00.973Z,841.04
2017-11-29T05:33:00.841Z,841.05
2017-11-29T05:34:00.710Z,841.04
2017-11-29T05:35:00.577Z,841.04
2017-11-29T05:36:00.445Z,841.04
2017-11-29T05:37:00.315Z,841.05
2017-11-29T05:38:00.184Z,841.04
2017-11-29T05:39:00.052Z,841.04
2017-11-29T05:39:59.919Z,841.09
2017-11-29T05:40:59.789Z,841.04
2017-11-29T05:41:59.662Z,841.06
2017-11-29T05:42:59.527Z,841.12
2017-11-29T05:43:59.396Z,841.10
2017-11-29T05:44:59.263Z,841.10
2017-11-29T05:45:59.136Z,841.12
2017-11-29T05:46:59.001Z,841.18
2017-11-29T05:47:58.866Z,841.12
2017-11-29T05:48:58.738Z,841.13
2017-11-29T05:49:58.609Z,841.14
2017-11-29T05:50:58.479Z,841.12
2017-11-29T05:51:58.340Z,841.12
2017-11-29T05:52:58.214Z,841.08
2017-11-29T05:53:58.082Z,841.10
2017-11-29T05:54:57.950Z,841.08
2017-11-29T05:55:57.817Z,841.05
2017-11-29T05:56:57.686Z,841.04
2017-11-29T05:57:57.558Z,841.07
2017-11-29T05:58:57.425Z,841.08
2017-11-29T05:59:57.295Z,841.09
2017-11-29T06:00:57.161Z,841.09
2017-11-29T06:01:57.030Z,841.11
2017-11-29T06:02:56.898Z,841.11
2017-11-29T06:03:56.768Z,841.15
2017-11-29T06:04:56.638Z,841.12
2017-11-29T06:05:56.505Z,841.12
2017-11-29T06:06:56.374Z,841.13
2017-11-29T06:07:56.242Z,841.15
2017-11-29T06:08:56.110Z,841.16
2017-11-29T06:09:55.977Z,841.15
2017-11-29T06:10:55.851Z,841.14
2017-11-29T06:11:55.717Z,841.17
2017-11-29T06:12:55.589Z,841.18
2017-11-29T06:13:55.456Z,841.16
2017-11-29T06:14:55.322Z,841.21
2017-11-29T06:15:55.192Z,841.22
2017-11-29T06:16:55.062Z,841.21
2017-11-29T06:17:54.931Z,841.20
2017-11-29T06:18:54.797Z,841.21
2017-11-29T06:19:54.669Z,841.22
2017-11-29T06:20:54.537Z,841.21
2017-11-29T06:21:54.406Z,841.22
2017-11-29T06:22:54.326Z,841.22
2017-11-29T06:23:54.138Z,841.23
2017-11-29T06:24:54.009Z,841.25
2017-11-29T06:25:53.879Z,841.22
2017-11-29T06:26:53.747Z,841.25
2017-11-29T06:27:53.614Z,841.26
2017-11-29T06:28:53.486Z,841.28
2017-11-29T06:29:53.352Z,841.25
2017-11-29T06:30:53.223Z,841.26
2017-11-29T06:31:53.091Z,841.26
2017-11-29T06:32:52.959Z,841.26
2017-11-29T06:33:52.865Z,841.28
2017-11-29T06:34:52.698Z,841.29
2017-11-29T06:35:52.563Z,841.30
2017-11-29T06:36:52.433Z,841.28
2017-11-29T06:37:52.300Z,841.30
2017-11-29T06:38:52.193Z,841.27
2017-11-29T06:39:52.038Z,841.33
2017-11-29T06:40:51.906Z,841.28
2017-11-29T06:41:51.777Z,841.28
2017-11-29T06:42:51.648Z,841.24
2017-11-29T06:43:51.525Z,841.25
2017-11-29T06:44:51.385Z,841.23
2017-11-29T06:45:51.249Z,841.24
2017-11-29T06:46:51.127Z,841.23
2017-11-29T06:47:50.990Z,841.26
2017-11-29T06:48:50.858Z,841.23
2017-11-29T06:49:50.725Z,841.20
2017-11-29T06:50:50.593Z,841.21
2017-11-29T06:51:50.461Z,841.20
2017-11-29T06:52:50.329Z,841.18
2017-11-29T06:53:50.197Z,841.19
2017-11-29T06:54:50.066Z,841.22
2017-11-29T06:55:49.940Z,841.20
2017-11-29T06:56:49.805Z,841.20
2017-11-29T06:57:49.675Z,841.17
2017-11-29T06:58:49.543Z,841.19
2017-11-29T06:59:49.410Z,841.14
2017-11-29T07:00:49.283Z,841.15
2017-11-29T07:01:49.147Z,841.12
2017-11-29T07:02:49.019Z,841.15
2017-11-29T07:03:48.885Z,841.14
2017-11-29T07:04:48.751Z,841.17
2017-11-29T07:05:48.621Z,841.16
2017-11-29T07:06:48.487Z,841.13
2017-11-29T07:07:48.356Z,841.10
2017-11-29T07:08:48.235Z,841.08
2017-11-29T07:09:48.094Z,841.07
2017-11-29T07:10:47.965Z,841.07
2017-11-29T07:11:47.832Z,841.06
2017-11-29T07:12:47.700Z,841.07
2017-11-29T07:13:47.569Z,841.07
2017-11-29T07:14:47.447Z,841.08
2017-11-29T07:15:47.310Z,841.08
2017-11-29T07:16:47.173Z,841.06
2017-11-29T07:17:47.042Z,841.12
2017-11-29T07:18:46.913Z,841.08
2017-11-29T07:19:46.779Z,841.07
2017-11-29T07:20:46.650Z,841.08
2017-11-29T07:21:46.519Z,841.04
2017-11-29T07:22:46.387Z,841.03
2017-11-29T07:23:46.258Z,841.03
2017-11-29T07:24:46.122Z,841.04
2017-11-29T07:25:45.991Z,841.02
2017-11-29T07:26:45.861Z,841.05
2017-11-29T07:27:45.727Z,841.04
2017-11-29T07:28:45.598Z,841.03
2017-11-29T07:29:45.465Z,841.03
2017-11-29T07:30:45.335Z,841.07
2017-11-29T07:31:45.200Z,841.06
2017-11-29T07:32:45.075Z,841.08
2017-11-29T07:33:44.949Z,841.09
2017-11-29T07:34:44.806Z,841.06
2017-11-29T07:35:44.672Z,841.01
2017-11-29T07:36:44.542Z,841.05
2017-11-29T07:37:44.411Z,841.04
2017-11-29T07:38:44.280Z,841.03
2017-11-29T07:39:44.148Z,841.02
2017-11-29T07:40:44.017Z,841.07
2017-11-29T07:41:43.884Z,841.04
2017-11-29T07:42:43.752Z,840.98
2017-11-29T07:43:43.627Z,840.96
2017-11-29T07:44:43.491Z,840.95
2017-11-29T07:45:43.359Z,840.89
2017-11-29T07:46:43.227Z,840.94
2017-11-29T07:47:43.097Z,840.90
2017-11-29T07:48:42.965Z,840.91
2017-11-29T07:49:42.832Z,840.90
2017-11-29T07:50:42.698Z,840.89
2017-11-29T07:51:42.570Z,840.86
2017-11-29T07:52:42.439Z,840.83
2017-11-29T07:53:42.307Z,840.83
2017-11-29T07:54:42.173Z,840.85
2017-11-29T07:55:42.043Z,840.85
2017-11-29T07:56:41.913Z,840.82
2017-11-29T07:57:41.782Z,840.86
2017-11-29T07:58:41.649Z,840.84
2017-11-29T07:59:41.516Z,840.87
2017-11-29T08:00:41.387Z,840.86
2017-11-29T08:01:41.252Z,840.83
2017-11-29T08:02:41.125Z,840.83
2017-11-29T08:03:41.000Z,840.80
2017-11-29T08:04:40.865Z,840.78
2017-11-29T08:05:40.731Z,840.81
2017-11-29T08:06:40.597Z,840.81
2017-11-29T08:07:40.466Z,840.78
2017-11-29T08:08:40.342Z,840.82
2017-11-29T08:09:40.203Z,840.83
2017-11-29T08:10:40.077Z,840.83
2017-11-29T08:11:39.941Z,840.89
2017-11-29T08:12:39.810Z,840.85
2017-11-29T08:13:39.680Z,840.84
2017-11-29T08:14:39.549Z,840.89
2017-11-29T08:15:39.415Z,840.88
2017-11-29T08:16:39.286Z,840.91
2017-11-29T08:17:39.166Z,840.95
2017-11-29T08:18:39.027Z,840.92
2017-11-29T08:19:38.893Z,840.94
2017-11-29T08:20:38.761Z,840.92
2017-11-29T08:21:38.632Z,840.95
2017-11-29T08:22:38.501Z,840.95
2017-11-29T08:23:38.369Z,840.96
2017-11-29T08:24:38.252Z,840.96
2017-11-29T08:25:38.106Z,840.95
2017-11-29T08:26:37.976Z,840.96
2017-11-29T08:27:37.843Z,840.95
2017-11-29T08:28:37.711Z,840.97
2017-11-29T08:29:37.582Z,840.95
2017-11-29T08:30:37.451Z,840.99
2017-11-29T08:31:37.318Z,840.99
2017-11-29T08:32:37.189Z,840.95
2017-11-29T08:33:37.061Z,840.96
2017-11-29T08:34:36.926Z,840.98
2017-11-29T08:35:36.795Z,840.99
2017-11-29T08:36:36.662Z,840.98
2017-11-29T08:37:36.536Z,840.97
2017-11-29T08:38:36.404Z,840.91
2017-11-29T08:39:36.272Z,840.88
2017-11-29T08:40:36.141Z,840.88
2017-11-29T08:41:36.014Z,840.85
2017-11-29T08:42:35.884Z,840.79
2017-11-29T08:43:35.749Z,840.79
2017-11-29T08:44:35.618Z,840.81
2017-11-29T08:45:35.496Z,840.85
2017-11-29T08:46:35.356Z,840.83
2017-11-29T08:47:35.227Z,840.87
2017-11-29T08:48:35.094Z,840.82
2017-11-29T08:49:34.964Z,840.88
2017-11-29T08:50:34.833Z,840.92
2017-11-29T08:51:34.700Z,840.89
2017-11-29T08:52:34.572Z,840.89
2017-11-29T08:53:34.442Z,840.93
2017-11-29T08:54:34.310Z,840.90
2017-11-29T08:55:34.176Z,840.88
2017-11-29T08:56:34.048Z,840.87
2017-11-29T08:57:33.919Z,840.86
2017-11-29T08:58:33.787Z,840.86
2017-11-29T08:59:33.655Z,840.85
2017-11-29T09:00:33.533Z,840.82
2017-11-29T09:01:33.395Z,840.87
2017-11-29T09:02:33.262Z,840.80
2017-11-29T09:03:33.134Z,840.78
2017-11-29T09:04:33.007Z,840.78
2017-11-29T09:05:32.872Z,840.76
2017-11-29T09:06:32.740Z,840.78
2017-11-29T09:07:32.610Z,840.82
2017-11-29T09:08:32.478Z,840.81
2017-11-29T09:09:32.349Z,840.86
2017-11-29T09:10:32.219Z,840.83
2017-11-29T09:11:32.087Z,840.80
2017-11-29T09:12:31.958Z,840.80
2017-11-29T09:13:31.831Z,840.84
2017-11-29T09:14:31.697Z,840.83
2017-11-29T09:15:31.569Z,840.87
2017-11-29T09:16:31.441Z,840.85
2017-11-29T09:17:31.305Z,840.85
2017-11-29T09:18:31.180Z,840.87
2017-11-29T09:19:31.041Z,840.83
2017-11-29T09:20:30.915Z,840.84
2017-11-29T09:21:30.785Z,840.88
2017-11-29T09:22:30.651Z,840.82
2017-11-29T09:23:30.522Z,840.85
2017-11-29T09:24:30.393Z,840.84
2017-11-29T09:25:30.261Z,840.82
2017-11-29T09:26:30.131Z,840.81
2017-11-29T09:27:29.999Z,840.80
2017-11-29T09:28:29.869Z,840.78
2017-11-29T09:29:29.757Z,840.82
2017-11-29T09:30:29.606Z,840.80
2017-11-29T09:31:29.475Z,840.79
2017-11-29T09:32:29.350Z,840.76
2017-11-29T09:33:29.213Z,840.72
2017-11-29T09:34:29.082Z,840.73
2017-11-29T09:35:28.952Z,840.69
2017-11-29T09:36:28.823Z,840.71
2017-11-29T09:37:28.702Z,840.68
2017-11-29T09:38:28.558Z,840.68
2017-11-29T09:39:28.427Z,840.70
2017-11-29T09:40:28.301Z,840.68
2017-11-29T09:41:28.168Z,840.71
2017-11-29T09:42:28.035Z,840.65
2017-11-29T09:43:27.906Z,840.70
2017-11-29T09:44:27.774Z,840.63
2017-11-29T09:45:27.645Z,840.64
2017-11-29T09:46:27.513Z,840.61
2017-11-29T09:47:27.385Z,840.58
2017-11-29T09:48:27.253Z,840.56
2017-11-29T09:49:27.125Z,840.55
2017-11-29T09:50:26.994Z,840.56
2017-11-29T09:51:26.861Z,840.54
2017-11-29T09:52:26.739Z,840.55
2017-11-29T09:53:26.602Z,840.54
2017-11-29T09:54:26.477Z,840.55
2017-11-29T09:55:26.343Z,840.53
2017-11-29T09:56:26.209Z,840.54
2017-11-29T09:57:26.083Z,840.56
2017-11-29T09:58:25.953Z,840.55
2017-11-29T09:59:25.821Z,840.53
2017-11-29T10:00:25.694Z,840.56
2017-11-29T10:01:25.559Z,840.54
2017-11-29T10:02:25.432Z,840.50
2017-11-29T10:03:25.300Z,840.52
2017-11-29T10:04:25.168Z,840.50
2017-11-29T10:05:25.040Z,840.45
2017-11-29T10:06:24.908Z,840.49
2017-11-29T10:07:24.779Z,840.46
2017-11-29T10:08:24.650Z,840.49
2017-11-29T10:09:24.521Z,840.50
2017-11-29T10:10:24.392Z,840.49
2017-11-29T10:11:24.258Z,840.45
2017-11-29T10:12:24.132Z,840.43
2017-11-29T10:13:23.997Z,840.42
2017-11-29T10:14:23.868Z,840.40
2017-11-29T10:15:23.740Z,840.39
2017-11-29T10:16:23.609Z,840.39
2017-11-29T10:17:23.478Z,840.39
2017-11-29T10:18:23.349Z,840.41
2017-11-29T10:19:23.218Z,840.45
2017-11-29T10:20:23.829Z,840.44
2017-11-29T10:21:22.958Z,840.48
2017-11-29T10:22:22.845Z,840.48
2017-11-29T10:23:22.698Z,840.50
2017-11-29T10:24:22.569Z,840.46
2017-11-29T10:25:22.437Z,840.45
2017-11-29T10:26:22.308Z,840.41
2017-11-29T10:27:22.189Z,840.43
2017-11-29T10:28:22.047Z,840.43
2017-11-29T10:29:21.919Z,840.39
2017-11-29T10:30:21.788Z,840.38
2017-11-29T10:31:21.656Z,840.36
2017-11-29T10:32:21.527Z,840.34
2017-11-29T10:33:21.399Z,840.36
2017-11-29T10:34:21.266Z,840.35
2017-11-29T10:35:21.136Z,840.30
2017-11-29T10:36:21.011Z,840.31
2017-11-29T10:37:20.884Z,840.33
2017-11-29T10:38:20.745Z,840.27
2017-11-29T10:39:20.614Z,840.26
2017-11-29T10:40:20.484Z,840.28
2017-11-29T10:41:20.362Z,840.25
2017-11-29T10:42:20.228Z,840.25
2017-11-29T10:43:20.094Z,840.20
2017-11-29T10:44:19.972Z,840.21
2017-11-29T10:45:19.840Z,840.21
2017-11-29T10:46:19.702Z,840.19
2017-11-29T10:47:19.575Z,840.19
2017-11-29T10:48:19.447Z,840.17
2017-11-29T10:49:19.312Z,840.17
2017-11-29T10:50:19.185Z,840.17
2017-11-29T10:51:19.051Z,840.19
2017-11-29T10:52:18.924Z,840.15
2017-11-29T10:53:18.791Z,840.20
2017-11-29T10:54:18.669Z,840.15
2017-11-29T10:55:18.529Z,840.17
2017-11-29T10:56:18.399Z,840.15
2017-11-29T10:57:18.269Z,840.12
2017-11-29T10:58:18.139Z,840.11
2017-11-29T10:59:18.019Z,840.12
2017-11-29T11:00:17.883Z,840.13
2017-11-29T11:01:17.748Z,840.10
2017-11-29T11:02:17.628Z,840.08
2017-11-29T11:03:17.487Z,840.07
2017-11-29T11:04:17.355Z,840.12
2017-11-29T11:05:17.226Z,840.13
2017-11-29T11:06:17.097Z,840.11
2017-11-29T11:07:16.964Z,840.15
2017-11-29T11:08:16.834Z,840.11
2017-11-29T11:09:16.703Z,840.12
2017-11-29T11:10:16.572Z,840.14
2017-11-29T11:11:16.443Z,840.13
2017-11-29T11:12:16.312Z,840.09
2017-11-29T11:13:16.197Z,840.10
2017-11-29T11:14:16.051Z,840.09
2017-11-29T11:15:15.920Z,840.08
2017-11-29T11:16:15.788Z,840.08
2017-11-29T11:17:15.658Z,840.08
2017-11-29T11:18:15.529Z,840.09
2017-11-29T11:19:15.396Z,840.08
2017-11-29T11:20:15.266Z,840.11
2017-11-29T11:21:15.136Z,840.14
2017-11-29T11:22:15.009Z,840.15
2017-11-29T11:23:14.873Z,840.15
2017-11-29T11:24:14.742Z,840.13
2017-11-29T11:25:14.616Z,840.15
2017-11-29T11:26:14.485Z,840.13
2017-11-29T11:27:14.350Z,840.14
2017-11-29T11:28:14.221Z,840.05
2017-11-29T11:29:14.091Z,840.05
2017-11-29T11:30:13.960Z,840.02
2017-11-29T11:31:13.829Z,840.04
2017-11-29T11:32:13.701Z,840.02
2017-11-29T11:33:13.572Z,840.02
2017-11-29T11:34:13.439Z,840.04
2017-11-29T11:35:13.308Z,840.04
2017-11-29T11:36:13.182Z,840.08
2017-11-29T11:37:13.051Z,840.05
2017-11-29T11:38:12.914Z,840.04
2017-11-29T11:39:12.783Z,839.98
2017-11-29T11:40:12.652Z,839.97
2017-11-29T11:41:12.520Z,840.00
2017-11-29T11:42:12.396Z,839.98
2017-11-29T11:43:12.262Z,839.96
2017-11-29T11:44:12.134Z,839.95
2017-11-29T11:45:11.993Z,839.97
2017-11-29T11:46:11.905Z,839.94
2017-11-29T11:47:11.736Z,839.93
2017-11-29T11:48:11.603Z,839.92
2017-11-29T11:49:11.473Z,839.95
2017-11-29T11:50:11.341Z,839.95
2017-11-29T11:51:11.209Z,839.92
2017-11-29T11:52:11.079Z,839.92
2017-11-29T11:53:10.946Z,839.91
2017-11-29T11:54:10.818Z,839.89
2017-11-29T11:55:10.684Z,839.89
2017-11-29T11:56:10.554Z,839.87
2017-11-29T11:57:10.420Z,839.86
2017-11-29T11:58:10.292Z,839.85
2017-11-29T11:59:10.157Z,839.83
2017-11-29T12:00:10.028Z,839.81
2017-11-29T12:01:09.900Z,839.78
2017-11-29T12:02:09.766Z,839.79
2017-11-29T12:03:09.634Z,839.75
2017-11-29T12:04:09.504Z,839.75
2017-11-29T12:05:09.374Z,839.76
2017-11-29T12:06:09.243Z,839.75
2017-11-29T12:07:09.112Z,839.74
2017-11-29T12:08:08.979Z,839.73
2017-11-29T12:09:08.850Z,839.73
2017-11-29T12:10:08.718Z,839.74
2017-11-29T12:11:08.585Z,839.66
2017-11-29T12:12:08.453Z,839.66
2017-11-29T12:13:08.327Z,839.67
2017-11-29T12:14:08.193Z,839.66
2017-11-29T12:15:08.065Z,839.64
2017-11-29T12:16:07.936Z,839.66
2017-11-29T12:17:07.802Z,839.63
2017-11-29T12:18:07.671Z,839.64
2017-11-29T12:19:07.534Z,839.64
2017-11-29T12:20:07.404Z,839.66
2017-11-29T12:21:07.271Z,839.66
2017-11-29T12:22:07.146Z,839.63
2017-11-29T12:23:07.016Z,839.64
2017-11-29T12:24:06.880Z,839.60
2017-11-29T12:25:06.749Z,839.64
2017-11-29T12:26:06.615Z,839.58
2017-11-29T12:27:06.487Z,839.57